Time;durP1;ratioP1;P1;durP2;ratioP2;P2;SDS_P1;SDS_P2;PMS_P1;PMS_P2;Temp;Humidity;BMP_temperature;BMP_pressure;BME280_temperature;BME280_humidity;BME280_pressure;Samples;Min_cycle;Max_cycle;Signal;HPM_P1;HPM_P2
2022/09/07 00:01:06;;;;;;;6.50;5.90;;;16.70;99.90;;;;;;5098103;28;20461;-79
2022/09/07 00:03:34;;;;;;;6.73;6.10;;;16.70;99.90;;;;;;5105299;28;20609;-80
2022/09/07 00:06:06;;;;;;;6.00;5.50;;;16.60;99.90;;;;;;5099841;27;20465;-80
2022/09/07 00:08:33;;;;;;;5.60;5.10;;;16.60;99.90;;;;;;5105761;27;21186;-80
2022/09/07 00:11:04;;;;;;;6.20;5.67;;;16.70;99.90;;;;;;5106394;27;20439;-80
2022/09/07 00:13:33;;;;;;;5.43;4.90;;;16.70;99.90;;;;;;5101216;28;20465;-80
2022/09/07 00:16:05;;;;;;;6.70;6.10;;;16.60;99.90;;;;;;5102902;27;20471;-81
2022/09/07 00:18:32;;;;;;;9.43;6.80;;;16.50;99.90;;;;;;5103781;28;20462;-81
2022/09/07 00:21:02;;;;;;;5.57;5.07;;;16.40;99.90;;;;;;5105063;27;20458;-81
2022/09/07 00:23:31;;;;;;;6.13;5.53;;;16.30;99.90;;;;;;5105115;28;20493;-82
2022/09/07 00:26:01;;;;;;;9.10;5.33;;;16.20;99.90;;;;;;5101954;28;20459;-80
2022/09/07 00:28:28;;;;;;;6.20;5.60;;;16.20;99.90;;;;;;5107670;27;20482;-81
2022/09/07 00:30:55;;;;;;;4.77;4.27;;;16.10;99.90;;;;;;5106921;27;20462;-80
2022/09/07 00:33:23;;;;;;;8.73;4.87;;;16.00;99.90;;;;;;5105772;27;20465;-80
2022/09/07 00:35:50;;;;;;;6.70;6.10;;;16.00;99.90;;;;;;5103592;27;20996;-79
2022/09/07 00:38:18;;;;;;;6.20;5.60;;;16.00;99.90;;;;;;5103199;28;21134;-80
2022/09/07 00:40:45;;;;;;;6.77;5.50;;;16.00;99.90;;;;;;5106593;27;20450;-81
2022/09/07 00:43:16;;;;;;;5.63;5.03;;;15.90;99.90;;;;;;5101458;27;20481;-80
2022/09/07 00:45:43;;;;;;;6.77;5.90;;;16.00;99.90;;;;;;5100878;28;20489;-80
2022/09/07 00:48:16;;;;;;;7.17;6.47;;;15.90;99.90;;;;;;5100082;27;20463;-83
2022/09/07 00:50:47;;;;;;;7.40;6.63;;;16.00;99.90;;;;;;5102923;27;20489;-79
2022/09/07 00:53:20;;;;;;;5.93;5.43;;;16.00;99.90;;;;;;5099400;27;20969;-80
2022/09/07 00:55:49;;;;;;;5.17;4.70;;;15.90;99.90;;;;;;5102988;28;20476;-83
2022/09/07 00:58:17;;;;;;;5.63;4.97;;;15.90;99.90;;;;;;5105102;27;20499;-79
2022/09/07 01:00:46;;;;;;;7.37;6.60;;;15.90;99.90;;;;;;5105291;27;20469;-82
2022/09/07 01:03:16;;;;;;;6.43;5.87;;;15.90;99.90;;;;;;5100269;28;20530;-82
2022/09/07 01:05:45;;;;;;;7.10;6.40;;;15.90;99.90;;;;;;5100703;27;20461;-80
2022/09/07 01:08:14;;;;;;;7.60;6.80;;;15.70;99.90;;;;;;5104394;28;21102;-81
2022/09/07 01:10:42;;;;;;;6.87;5.50;;;15.70;99.90;;;;;;5101007;28;20453;-79
2022/09/07 01:13:09;;;;;;;7.00;5.90;;;15.70;99.90;;;;;;5103483;28;20465;-80
2022/09/07 01:15:49;;;;;;;6.20;5.63;;;15.60;99.90;;;;;;5102243;28;20968;-81
2022/09/07 01:18:26;;;;;;;6.30;5.33;;;15.70;99.90;;;;;;5107567;27;20467;-81
2022/09/07 01:21:21;;;;;;;12.77;7.30;;;15.70;99.90;;;;;;5099374;28;20683;-81
2022/09/07 01:24:42;;;;;;;9.30;6.60;;;15.70;99.90;;;;;;5105502;27;20485;-80
2022/09/07 01:27:44;;;;;;;8.63;6.30;;;15.60;99.90;;;;;;5057933;28;20471;-80
2022/09/07 01:30:13;;;;;;;8.60;6.50;;;15.50;99.90;;;;;;5093853;28;20472;-79
2022/09/07 01:32:59;;;;;;;7.73;7.00;;;15.50;99.90;;;;;;5093425;28;20466;-81
2022/09/07 01:35:31;;;;;;;8.17;7.10;;;15.50;99.90;;;;;;5099128;28;20475;-79
2022/09/07 01:38:08;;;;;;;8.00;7.13;;;15.50;99.90;;;;;;5099864;28;20467;-82
2022/09/07 01:40:43;;;;;;;11.53;7.37;;;15.50;99.90;;;;;;5100552;28;20470;-82
2022/09/07 01:43:18;;;;;;;7.40;6.70;;;15.50;99.90;;;;;;5107848;28;20860;-80
2022/09/07 01:45:47;;;;;;;8.10;6.50;;;15.50;99.90;;;;;;5103278;28;20472;-80
2022/09/07 01:48:18;;;;;;;8.07;6.70;;;15.40;99.90;;;;;;5100143;27;20827;-81
2022/09/07 01:50:51;;;;;;;10.27;7.07;;;15.40;99.90;;;;;;5099938;28;20574;-79
2022/09/07 01:53:23;;;;;;;7.07;6.33;;;15.30;99.90;;;;;;5104591;28;20472;-80
2022/09/07 01:55:57;;;;;;;6.70;5.90;;;15.30;99.90;;;;;;5100230;28;20474;-80
2022/09/07 01:58:31;;;;;;;6.53;5.93;;;15.20;99.90;;;;;;5103725;28;20454;-80
2022/09/07 02:01:03;;;;;;;7.30;5.47;;;15.20;99.90;;;;;;5103206;28;20455;-80
2022/09/07 02:03:35;;;;;;;6.40;5.80;;;15.30;99.90;;;;;;5100304;28;20485;-80
2022/09/07 02:06:07;;;;;;;6.13;5.27;;;15.20;99.90;;;;;;5099540;28;20459;-80
2022/09/07 02:08:38;;;;;;;8.30;5.70;;;15.10;99.90;;;;;;5102821;28;21209;-81
2022/09/07 02:11:08;;;;;;;6.07;5.50;;;15.00;99.90;;;;;;5119107;28;20493;-80
2022/09/07 02:13:40;;;;;;;6.63;5.37;;;15.10;99.90;;;;;;5121158;28;20438;-80
2022/09/07 02:16:11;;;;;;;11.80;5.93;;;15.00;99.90;;;;;;5123570;28;20510;-79
2022/09/07 02:18:44;;;;;;;7.40;5.90;;;14.90;99.90;;;;;;5113108;28;20462;-80
2022/09/07 02:21:13;;;;;;;5.97;5.47;;;15.00;99.90;;;;;;5105020;28;20503;-82
2022/09/07 02:23:44;;;;;;;6.73;6.00;;;14.90;99.90;;;;;;5098803;28;20492;-79
2022/09/07 02:26:16;;;;;;;6.13;5.53;;;14.80;99.90;;;;;;5099762;28;20456;-80
2022/09/07 02:28:45;;;;;;;8.47;5.43;;;14.90;99.90;;;;;;5102891;28;20485;-79
2022/09/07 02:31:12;;;;;;;6.20;5.60;;;14.90;99.90;;;;;;5099202;28;20456;-80
2022/09/07 02:33:39;;;;;;;6.97;6.00;;;14.90;99.90;;;;;;5104477;28;21061;-80
2022/09/07 02:36:07;;;;;;;11.87;7.67;;;14.90;99.90;;;;;;5103596;28;20463;-80
2022/09/07 02:38:35;;;;;;;8.50;6.37;;;14.90;99.90;;;;;;5106606;28;20466;-80
2022/09/07 02:41:03;;;;;;;7.47;5.23;;;14.90;99.90;;;;;;5108278;27;20461;-81
2022/09/07 02:43:31;;;;;;;10.13;7.80;;;14.80;99.90;;;;;;5105410;27;20489;-82
2022/09/07 02:46:16;;;;;;;7.07;6.37;;;14.80;99.90;;;;;;5103311;27;20461;-84
2022/09/07 02:48:50;;;;;;;10.70;9.03;;;14.80;99.90;;;;;;5103235;27;20457;-80
2022/09/07 02:51:25;;;;;;;9.70;7.03;;;14.80;99.90;;;;;;5102153;27;20470;-80
2022/09/07 02:54:13;;;;;;;8.50;6.93;;;14.80;99.90;;;;;;5104344;27;20470;-82
2022/09/07 02:56:55;;;;;;;7.33;6.40;;;14.90;99.90;;;;;;5108766;28;20448;-80
2022/09/07 02:59:38;;;;;;;7.40;6.60;;;15.00;99.90;;;;;;5096770;28;20469;-79
2022/09/07 03:02:13;;;;;;;9.40;8.40;;;15.00;99.90;;;;;;5103332;27;20471;-83
2022/09/07 03:04:47;;;;;;;7.87;7.03;;;14.90;99.90;;;;;;5105359;28;20469;-80
2022/09/07 03:07:18;;;;;;;9.37;7.60;;;14.90;99.90;;;;;;5107882;27;20602;-79
2022/09/07 03:09:49;;;;;;;9.50;7.90;;;14.90;99.90;;;;;;5103701;27;20455;-80
2022/09/07 03:12:16;;;;;;;8.70;7.40;;;14.90;99.90;;;;;;5106002;27;20461;-80
2022/09/07 03:14:44;;;;;;;7.53;6.73;;;14.90;99.90;;;;;;5098481;28;20469;-78
2022/09/07 03:17:14;;;;;;;7.40;6.63;;;14.90;99.90;;;;;;5104281;28;20473;-79
2022/09/07 03:19:41;;;;;;;9.83;8.83;;;14.90;99.90;;;;;;5102101;27;20929;-79
2022/09/07 03:22:08;;;;;;;10.37;8.30;;;14.90;99.90;;;;;;5101802;28;20465;-79
2022/09/07 03:24:36;;;;;;;11.60;9.03;;;14.80;99.90;;;;;;5103439;27;20494;-80
2022/09/07 03:27:03;;;;;;;11.40;8.50;;;14.80;99.90;;;;;;5103997;27;20522;-79
2022/09/07 03:29:30;;;;;;;9.17;8.23;;;14.80;99.90;;;;;;5107603;27;21240;-79
2022/09/07 03:31:58;;;;;;;9.87;8.33;;;14.80;99.90;;;;;;5107630;27;20451;-81
2022/09/07 03:34:26;;;;;;;9.07;7.20;;;14.70;99.90;;;;;;5102368;27;20466;-79
2022/09/07 03:36:53;;;;;;;7.73;7.00;;;14.70;99.90;;;;;;5101171;27;20458;-79
2022/09/07 03:39:22;;;;;;;10.10;7.50;;;14.70;99.90;;;;;;5101622;27;20471;-80
2022/09/07 03:41:49;;;;;;;6.63;6.00;;;14.60;99.90;;;;;;5103007;28;20467;-82
2022/09/07 03:44:17;;;;;;;9.53;7.50;;;14.60;99.90;;;;;;5106648;28;20487;-80
2022/09/07 03:46:44;;;;;;;18.40;7.17;;;14.60;99.90;;;;;;5105846;28;20465;-79
2022/09/07 03:49:11;;;;;;;9.57;6.23;;;14.50;99.90;;;;;;5102951;27;20990;-79
2022/09/07 03:51:40;;;;;;;8.00;7.30;;;14.40;99.90;;;;;;5105524;27;20479;-81
2022/09/07 03:54:07;;;;;;;7.10;6.50;;;14.40;99.90;;;;;;5100204;27;20473;-79
2022/09/07 03:56:34;;;;;;;12.30;8.73;;;14.50;99.90;;;;;;5104816;27;20465;-79
2022/09/07 03:59:01;;;;;;;11.80;7.67;;;14.50;99.90;;;;;;5101668;27;20469;-82
2022/09/07 04:01:28;;;;;;;8.70;6.77;;;14.60;99.90;;;;;;5100079;28;20460;-83
2022/09/07 04:03:58;;;;;;;7.83;7.03;;;14.70;99.90;;;;;;5099037;28;20469;-79
2022/09/07 04:06:26;;;;;;;7.53;6.83;;;14.60;99.90;;;;;;5102726;27;20522;-79
2022/09/07 04:08:56;;;;;;;6.93;6.30;;;14.50;99.90;;;;;;5097257;28;20519;-82
2022/09/07 04:11:23;;;;;;;8.10;7.27;;;14.40;99.90;;;;;;5109170;28;20556;-81
2022/09/07 04:13:50;;;;;;;8.40;7.60;;;14.40;99.90;;;;;;5110990;27;20460;-79
2022/09/07 04:16:19;;;;;;;10.23;6.97;;;14.30;99.90;;;;;;5121853;27;20466;-79
2022/09/07 04:18:48;;;;;;;7.47;6.73;;;14.30;99.90;;;;;;5117377;27;20494;-79
2022/09/07 04:21:16;;;;;;;9.37;8.47;;;14.30;99.90;;;;;;5103714;27;20926;-78
2022/09/07 04:23:43;;;;;;;7.60;6.30;;;14.30;99.90;;;;;;5108008;27;20476;-79
2022/09/07 04:26:16;;;;;;;7.20;6.57;;;14.30;99.90;;;;;;5106293;27;20465;-79
2022/09/07 04:28:43;;;;;;;6.67;6.10;;;14.20;99.90;;;;;;5103683;28;20825;-80
2022/09/07 04:31:10;;;;;;;9.33;5.70;;;14.20;99.90;;;;;;5101596;28;20489;-79
2022/09/07 04:33:37;;;;;;;9.07;7.73;;;14.20;99.90;;;;;;5104949;27;20457;-79
2022/09/07 04:36:05;;;;;;;8.67;7.17;;;14.10;99.90;;;;;;5102374;27;20467;-78
2022/09/07 04:38:32;;;;;;;8.40;7.13;;;14.20;99.90;;;;;;5102718;27;20464;-79
2022/09/07 04:41:00;;;;;;;7.90;7.10;;;14.20;99.90;;;;;;5100967;27;20465;-79
2022/09/07 04:43:29;;;;;;;6.40;5.80;;;14.30;99.90;;;;;;5103703;27;20482;-79
2022/09/07 04:45:56;;;;;;;17.33;6.33;;;14.30;99.90;;;;;;5104508;27;20466;-79
2022/09/07 04:48:23;;;;;;;6.87;5.40;;;14.20;99.90;;;;;;5100172;27;20469;-79
2022/09/07 04:50:52;;;;;;;6.57;5.70;;;14.20;99.90;;;;;;5102537;28;20461;-82
2022/09/07 04:53:19;;;;;;;5.67;4.60;;;14.20;99.90;;;;;;5103645;27;20946;-78
2022/09/07 04:55:46;;;;;;;6.90;6.40;;;14.30;99.90;;;;;;5100424;27;20457;-79
2022/09/07 04:58:13;;;;;;;7.73;5.40;;;14.30;99.90;;;;;;5093970;28;20463;-79
2022/09/07 05:00:42;;;;;;;6.27;5.63;;;14.30;99.90;;;;;;5098756;27;20463;-83
2022/09/07 05:03:09;;;;;;;7.57;5.63;;;14.30;99.90;;;;;;5100827;27;20485;-86
2022/09/07 05:05:39;;;;;;;5.47;4.73;;;14.30;99.90;;;;;;5100058;27;20468;-83
2022/09/07 05:08:06;;;;;;;5.93;4.83;;;14.30;99.90;;;;;;5103809;27;21197;-79
2022/09/07 05:10:33;;;;;;;6.13;5.53;;;14.40;99.90;;;;;;5108326;27;21244;-79
2022/09/07 05:13:01;;;;;;;7.30;4.83;;;14.60;99.90;;;;;;5109740;27;20451;-79
2022/09/07 05:15:29;;;;;;;4.83;4.10;;;14.70;99.90;;;;;;5108339;28;20490;-79
2022/09/07 05:17:58;;;;;;;4.07;3.77;;;14.90;99.90;;;;;;5102834;28;20529;-79
2022/09/07 05:20:25;;;;;;;8.47;5.50;;;15.00;99.90;;;;;;5106548;27;20480;-81
2022/09/07 05:22:58;;;;;;;5.17;3.50;;;15.00;99.90;;;;;;5112105;27;20455;-78
2022/09/07 05:25:27;;;;;;;7.20;4.93;;;15.20;99.90;;;;;;5109922;27;22391;-79
2022/09/07 05:27:54;;;;;;;13.53;5.07;;;15.30;99.90;;;;;;5111898;27;20462;-79
2022/09/07 05:30:22;;;;;;;8.77;5.10;;;15.30;99.90;;;;;;5099000;27;20469;-79
2022/09/07 05:32:50;;;;;;;7.20;4.23;;;15.30;99.90;;;;;;5101141;28;20466;-79
2022/09/07 05:35:19;;;;;;;6.77;4.00;;;15.30;99.90;;;;;;5099877;28;20469;-79
2022/09/07 05:37:50;;;;;;;6.07;3.70;;;15.30;99.90;;;;;;5097265;28;20458;-79
2022/09/07 05:40:17;;;;;;;4.33;3.93;;;15.30;99.90;;;;;;5100255;28;20490;-79
2022/09/07 05:42:44;;;;;;;3.60;3.30;;;15.30;99.90;;;;;;5104979;28;20474;-81
2022/09/07 05:45:12;;;;;;;4.57;3.73;;;15.20;99.90;;;;;;5102213;28;20489;-78
2022/09/07 05:47:39;;;;;;;2.87;2.60;;;15.30;99.90;;;;;;5104613;28;20468;-79
2022/09/07 05:50:07;;;;;;;7.00;4.60;;;15.50;99.90;;;;;;5106058;27;20456;-78
2022/09/07 05:52:36;;;;;;;4.37;3.97;;;15.50;99.90;;;;;;5102711;28;20473;-81
2022/09/07 05:55:04;;;;;;;4.10;3.47;;;15.70;99.90;;;;;;5099467;28;21222;-79
2022/09/07 05:57:31;;;;;;;4.87;3.53;;;15.70;99.90;;;;;;5101381;28;20489;-78
2022/09/07 05:59:58;;;;;;;4.17;3.60;;;15.80;99.90;;;;;;5108074;28;20475;-79
2022/09/07 06:02:25;;;;;;;4.87;4.17;;;15.80;99.90;;;;;;5098011;28;20469;-79
2022/09/07 06:04:52;;;;;;;5.07;3.27;;;15.90;99.90;;;;;;5099948;28;20827;-79
2022/09/07 06:07:19;;;;;;;4.70;4.23;;;15.90;99.90;;;;;;5104471;28;20472;-78
2022/09/07 06:09:47;;;;;;;5.00;3.80;;;16.10;99.90;;;;;;5097848;28;21174;-80
2022/09/07 06:12:15;;;;;;;4.43;3.93;;;16.50;99.90;;;;;;5101892;28;20466;-86
2022/09/07 06:14:42;;;;;;;5.03;4.27;;;16.60;99.90;;;;;;5102712;27;20473;-85
2022/09/07 06:17:09;;;;;;;7.77;5.10;;;16.80;99.90;;;;;;5104698;27;20458;-82
2022/09/07 06:19:36;;;;;;;5.20;4.70;;;16.90;99.90;;;;;;5106101;27;20468;-84
2022/09/07 06:22:03;;;;;;;4.07;3.60;;;16.80;99.90;;;;;;5101627;27;20462;-85
2022/09/07 06:24:30;;;;;;;5.10;3.97;;;16.60;99.90;;;;;;5096246;28;20490;-87
2022/09/07 06:26:58;;;;;;;3.80;3.27;;;16.30;99.90;;;;;;5109741;27;21238;-88
2022/09/07 06:29:26;;;;;;;5.57;4.20;;;16.30;99.90;;;;;;5105230;28;20566;-87
2022/09/07 06:31:53;;;;;;;4.37;3.83;;;16.30;99.90;;;;;;5105116;27;20452;-84
2022/09/07 06:34:21;;;;;;;4.17;3.77;;;16.30;99.90;;;;;;5101909;28;20481;-87
2022/09/07 06:36:48;;;;;;;4.13;3.30;;;16.60;99.90;;;;;;5105138;27;21242;-83
2022/09/07 06:39:15;;;;;;;3.43;3.23;;;16.70;99.90;;;;;;5102558;27;21158;-85
2022/09/07 06:41:42;;;;;;;3.63;3.33;;;17.00;99.90;;;;;;5099548;27;21013;-85
2022/09/07 06:44:11;;;;;;;4.50;2.90;;;17.40;99.90;;;;;;5099569;28;20477;-85
2022/09/07 06:46:38;;;;;;;4.20;3.30;;;17.20;99.90;;;;;;5104274;27;20554;-88
2022/09/07 06:49:05;;;;;;;3.27;2.97;;;17.40;99.90;;;;;;5104092;28;20473;-87
2022/09/07 06:51:32;;;;;;;3.33;2.80;;;17.40;99.90;;;;;;5105692;27;20462;-88
2022/09/07 06:54:00;;;;;;;6.53;3.80;;;17.30;99.90;;;;;;5104736;27;20476;-84
2022/09/07 06:56:28;;;;;;;5.10;4.60;;;17.60;99.90;;;;;;5102952;28;20466;-85
2022/09/07 06:58:56;;;;;;;6.77;6.07;;;17.70;99.90;;;;;;5100795;27;20465;-86
2022/09/07 07:01:25;;;;;;;8.27;4.10;;;17.70;99.90;;;;;;5101058;27;20469;-86
2022/09/07 07:03:54;;;;;;;4.50;4.20;;;18.00;99.90;;;;;;5103086;27;20478;-87
2022/09/07 07:06:21;;;;;;;4.50;4.13;;;18.20;99.90;;;;;;5107738;27;21525;-85
2022/09/07 07:08:53;;;;;;;4.80;4.43;;;18.20;99.90;;;;;;5107450;27;20450;-87
2022/09/07 07:11:20;;;;;;;9.10;4.43;;;18.30;99.90;;;;;;5121956;27;20489;-86
2022/09/07 07:13:47;;;;;;;4.50;3.27;;;18.40;99.90;;;;;;5128848;27;20676;-86
2022/09/07 07:16:16;;;;;;;4.97;4.20;;;18.40;99.90;;;;;;5126058;27;20785;-86
2022/09/07 07:18:47;;;;;;;3.90;3.50;;;18.50;99.90;;;;;;5126191;27;20450;-88
2022/09/07 07:21:15;;;;;;;4.50;4.10;;;18.60;99.90;;;;;;5107278;27;20838;-89
2022/09/07 07:23:43;;;;;;;3.77;3.47;;;19.00;99.90;;;;;;5106859;27;20450;-86
2022/09/07 07:26:14;;;;;;;4.63;4.03;;;19.10;99.90;;;;;;5109506;27;20465;-87
2022/09/07 07:28:44;;;;;;;4.10;3.73;;;19.10;99.90;;;;;;5110560;27;20470;-84
2022/09/07 07:31:12;;;;;;;5.23;4.57;;;19.00;99.90;;;;;;5107042;27;20465;-84
2022/09/07 07:33:39;;;;;;;4.40;4.00;;;19.00;99.90;;;;;;5106146;27;20461;-87
2022/09/07 07:36:16;;;;;;;4.23;3.80;;;19.20;99.90;;;;;;5104782;27;20457;-87
2022/09/07 07:38:44;;;;;;;4.73;4.27;;;19.30;99.90;;;;;;5101786;27;20442;-85
2022/09/07 07:41:12;;;;;;;3.20;2.90;;;19.30;99.90;;;;;;5105276;27;20463;-85
2022/09/07 07:43:40;;;;;;;5.07;4.63;;;19.30;99.90;;;;;;5112470;27;20456;-85
2022/09/07 07:46:07;;;;;;;4.97;4.47;;;19.60;99.90;;;;;;5113956;27;20829;-85
2022/09/07 07:48:36;;;;;;;4.33;4.00;;;19.70;99.90;;;;;;5104911;27;20835;-87
2022/09/07 07:51:05;;;;;;;4.90;4.50;;;19.60;99.90;;;;;;5104392;27;20464;-85
2022/09/07 07:53:35;;;;;;;4.97;4.47;;;19.60;99.90;;;;;;5105247;28;20486;-85
2022/09/07 07:56:04;;;;;;;4.60;3.70;;;19.50;99.90;;;;;;5096719;27;20992;-88
2022/09/07 07:58:32;;;;;;;5.80;4.63;;;19.80;99.90;;;;;;5101458;27;20452;-86
2022/09/07 08:01:02;;;;;;;4.33;3.97;;;19.70;99.90;;;;;;5099669;27;20498;-85
2022/09/07 08:03:30;;;;;;;4.23;3.80;;;19.60;99.90;;;;;;5101086;28;20548;-84
2022/09/07 08:06:04;;;;;;;4.13;3.83;;;19.80;99.90;;;;;;5101270;27;20490;-85
2022/09/07 08:08:31;;;;;;;5.50;5.00;;;20.00;99.90;;;;;;5096292;28;20508;-85
2022/09/07 08:11:02;;;;;;;4.67;3.97;;;20.10;99.90;;;;;;5102255;28;20459;-85
2022/09/07 08:13:31;;;;;;;3.60;3.30;;;20.00;99.90;;;;;;5095565;28;20469;-85
2022/09/07 08:15:59;;;;;;;4.47;3.43;;;20.00;99.90;;;;;;5106368;27;20516;-85
2022/09/07 08:18:26;;;;;;;3.63;3.33;;;20.10;99.90;;;;;;5099238;27;20458;-86
2022/09/07 08:20:53;;;;;;;4.30;3.90;;;20.10;99.90;;;;;;5097227;27;20455;-86
2022/09/07 08:23:20;;;;;;;7.40;5.40;;;20.20;99.90;;;;;;5094456;28;21559;-88
2022/09/07 08:25:52;;;;;;;4.70;4.17;;;20.40;99.90;;;;;;5102379;27;21196;-85
2022/09/07 08:28:21;;;;;;;5.27;4.77;;;20.40;99.90;;;;;;5105124;27;20534;-84
2022/09/07 08:30:48;;;;;;;3.50;3.13;;;20.50;99.90;;;;;;5101617;27;20462;-85
2022/09/07 08:33:15;;;;;;;5.07;4.67;;;20.60;99.90;;;;;;5102446;27;20455;-88
2022/09/07 08:35:43;;;;;;;4.00;3.70;;;20.60;99.90;;;;;;5106745;27;20470;-85
2022/09/07 08:38:10;;;;;;;4.50;4.20;;;20.80;99.90;;;;;;5110540;27;20500;-88
2022/09/07 08:40:38;;;;;;;5.23;4.10;;;21.10;99.90;;;;;;5109020;27;20510;-86
2022/09/07 08:43:16;;;;;;;4.50;4.13;;;21.20;99.90;;;;;;5099940;27;20460;-85
2022/09/07 08:45:49;;;;;;;4.30;3.90;;;21.10;99.90;;;;;;5106539;27;20512;-85
2022/09/07 08:48:19;;;;;;;8.10;4.97;;;21.00;99.90;;;;;;5098144;27;20466;-84
2022/09/07 08:50:55;;;;;;;4.30;3.90;;;21.10;99.90;;;;;;5106337;27;20454;-85
2022/09/07 08:53:24;;;;;;;4.83;3.63;;;21.20;99.90;;;;;;5095855;28;20559;-85
2022/09/07 08:55:55;;;;;;;3.50;3.20;;;21.30;99.90;;;;;;5103582;27;20462;-87
2022/09/07 08:58:26;;;;;;;4.80;4.33;;;21.40;99.90;;;;;;5098688;27;20473;-85
2022/09/07 09:00:55;;;;;;;5.00;4.53;;;21.60;99.90;;;;;;5102121;27;20443;-85
2022/09/07 09:03:25;;;;;;;4.77;4.00;;;21.80;99.90;;;;;;5096645;28;20997;-84
2022/09/07 09:06:02;;;;;;;4.20;3.87;;;21.70;99.90;;;;;;5090798;27;20578;-83
2022/09/07 09:08:52;;;;;;;4.47;4.07;;;21.70;99.90;;;;;;5099169;27;21430;-83
2022/09/07 09:11:27;;;;;;;3.60;3.30;;;21.60;99.90;;;;;;5093238;28;20468;-84
2022/09/07 09:14:02;;;;;;;4.13;3.77;;;21.70;99.90;;;;;;5100855;27;20533;-84
2022/09/07 09:16:37;;;;;;;3.80;3.60;;;21.70;99.90;;;;;;5090110;28;20483;-80
2022/09/07 09:19:28;;;;;;;5.13;4.63;;;21.80;99.90;;;;;;5091528;28;20473;-81
2022/09/07 09:22:15;;;;;;;5.17;4.77;;;21.90;99.90;;;;;;5096062;28;20470;-86
2022/09/07 09:24:47;;;;;;;4.07;3.67;;;22.00;99.90;;;;;;5101824;27;21198;-83
2022/09/07 09:27:14;;;;;;;5.80;5.30;;;22.30;99.90;;;;;;5103601;27;20502;-82
2022/09/07 09:29:42;;;;;;;4.50;4.10;;;22.20;99.90;;;;;;5108686;27;20470;-82
2022/09/07 09:32:34;;;;;;;3.60;3.30;;;22.40;99.90;;;;;;5102500;27;20542;-82
2022/09/07 09:35:04;;;;;;;4.93;4.30;;;22.60;99.90;;;;;;5099131;28;20527;-82
2022/09/07 09:37:35;;;;;;;3.90;3.60;;;22.80;99.90;;;;;;5100149;28;20514;-82
2022/09/07 09:40:03;;;;;;;4.33;3.87;;;22.90;99.90;;;;;;5100205;28;20825;-82
2022/09/07 09:42:34;;;;;;;4.40;4.10;;;22.80;99.90;;;;;;5104403;27;20459;-82
2022/09/07 09:45:13;;;;;;;9.30;4.53;;;22.90;99.90;;;;;;5102326;28;20523;-83
2022/09/07 09:47:41;;;;;;;5.67;5.10;;;23.10;99.90;;;;;;5100486;28;20434;-82
2022/09/07 09:50:19;;;;;;;4.37;4.07;;;23.60;99.90;;;;;;5105638;28;21162;-82
2022/09/07 09:52:47;;;;;;;3.83;3.53;;;24.10;99.90;;;;;;5104074;27;20446;-82
2022/09/07 09:55:35;;;;;;;5.17;4.50;;;24.20;99.90;;;;;;5107901;27;20466;-82
2022/09/07 09:58:04;;;;;;;5.20;4.80;;;23.90;99.90;;;;;;5105155;27;20465;-82
2022/09/07 10:00:34;;;;;;;8.80;5.00;;;23.70;99.90;;;;;;5118136;27;20549;-84
2022/09/07 10:03:06;;;;;;;5.67;5.17;;;23.50;99.90;;;;;;5109189;27;20457;-82
2022/09/07 10:05:37;;;;;;;4.77;4.37;;;23.60;99.90;;;;;;5107582;27;20498;-82
2022/09/07 10:08:15;;;;;;;4.93;4.50;;;23.60;99.90;;;;;;5105509;27;20556;-83
2022/09/07 10:10:51;;;;;;;4.00;3.70;;;23.90;99.90;;;;;;5119006;27;20458;-82
2022/09/07 10:13:21;;;;;;;4.80;4.40;;;24.40;99.90;;;;;;5122797;27;20493;-83
2022/09/07 10:15:51;;;;;;;5.10;4.77;;;24.30;99.90;;;;;;5123930;27;20442;-81
2022/09/07 10:18:28;;;;;;;6.00;5.50;;;24.20;99.90;;;;;;5104680;28;20856;-86
2022/09/07 10:21:23;;;;;;;4.83;4.40;;;24.20;99.90;;;;;;5107385;28;20950;-82
2022/09/07 10:23:54;;;;;;;6.20;5.60;;;24.40;99.90;;;;;;5103731;27;20470;-84
2022/09/07 10:26:28;;;;;;;5.43;4.30;;;24.70;99.90;;;;;;5103965;27;21037;-82
2022/09/07 10:29:10;;;;;;;5.07;4.60;;;25.20;99.90;;;;;;5108207;27;21035;-82
2022/09/07 10:31:46;;;;;;;4.60;4.20;;;25.50;99.90;;;;;;5113868;27;20534;-82
2022/09/07 10:34:22;;;;;;;3.97;3.77;;;25.00;99.90;;;;;;5113437;27;20502;-84
2022/09/07 10:36:55;;;;;;;4.77;4.47;;;24.80;99.90;;;;;;5108800;27;20518;-82
2022/09/07 10:39:26;;;;;;;4.53;3.77;;;24.60;99.90;;;;;;5095976;28;20451;-84
2022/09/07 10:42:01;;;;;;;3.70;3.40;;;24.60;99.90;;;;;;5106878;27;20474;-82
2022/09/07 10:44:42;;;;;;;4.70;4.30;;;24.70;99.90;;;;;;5100284;27;20478;-85
2022/09/07 10:47:17;;;;;;;7.10;4.20;;;24.80;99.90;;;;;;5105645;27;20600;-82
2022/09/07 10:49:53;;;;;;;4.50;4.00;;;25.00;99.90;;;;;;5106043;27;20490;-85
2022/09/07 10:52:26;;;;;;;3.13;2.93;;;25.10;99.90;;;;;;5111493;27;20465;-82
2022/09/07 10:54:58;;;;;;;5.07;4.27;;;24.90;99.90;;;;;;5127159;27;20526;-82
2022/09/07 10:57:40;;;;;;;3.17;2.93;;;25.10;99.90;;;;;;5100139;27;20450;-85
2022/09/07 11:00:12;;;;;;;5.47;2.80;;;25.10;99.90;;;;;;5102184;27;20441;-82
2022/09/07 11:02:50;;;;;;;3.90;3.63;;;25.20;99.90;;;;;;5101752;27;20466;-84
2022/09/07 11:05:26;;;;;;;3.67;3.37;;;25.20;99.90;;;;;;5114894;27;21049;-81
2022/09/07 11:08:05;;;;;;;3.23;2.93;;;25.40;99.90;;;;;;5116237;27;20940;-82
2022/09/07 11:10:42;;;;;;;3.90;3.60;;;25.70;99.90;;;;;;5100613;27;20487;-84
2022/09/07 11:13:14;;;;;;;3.40;3.10;;;26.00;99.90;;;;;;5101428;27;20462;-83
2022/09/07 11:15:44;;;;;;;4.10;3.80;;;26.00;99.90;;;;;;5097123;27;20547;-83
2022/09/07 11:18:18;;;;;;;4.00;3.70;;;26.50;99.90;;;;;;5106465;27;20450;-82
2022/09/07 11:20:53;;;;;;;3.23;3.03;;;26.60;99.90;;;;;;5106201;27;20545;-82
2022/09/07 11:23:26;;;;;;;5.70;3.33;;;26.50;99.90;;;;;;5096436;27;20471;-82
2022/09/07 11:26:01;;;;;;;5.10;4.80;;;26.90;99.90;;;;;;5115585;27;20488;-85
2022/09/07 11:28:36;;;;;;;1.73;1.63;;;27.40;99.90;;;;;;5122231;27;20502;-83
2022/09/07 11:31:12;;;;;;;1.57;1.43;;;27.50;99.90;;;;;;5108501;27;20462;-83
2022/09/07 11:33:48;;;;;;;2.63;2.50;;;27.50;99.90;;;;;;5106302;27;20488;-82
2022/09/07 11:36:19;;;;;;;2.30;2.20;;;27.30;99.90;;;;;;5106215;27;21013;-84
2022/09/07 11:38:51;;;;;;;1.77;1.67;;;26.80;99.90;;;;;;5109963;27;20860;-84
2022/09/07 11:41:24;;;;;;;3.03;1.87;;;26.70;99.90;;;;;;5114308;27;20466;-82
2022/09/07 11:43:59;;;;;;;2.33;2.13;;;26.80;99.90;;;;;;5099299;27;20806;-82
2022/09/07 11:46:32;;;;;;;2.10;2.00;;;26.60;99.90;;;;;;5104226;27;20474;-83
2022/09/07 11:49:00;;;;;;;3.00;2.80;;;26.60;99.90;;;;;;5106230;27;21141;-83
2022/09/07 11:51:38;;;;;;;2.20;2.00;;;26.60;99.90;;;;;;5099352;27;20514;-84
2022/09/07 11:54:19;;;;;;;2.47;2.27;;;26.20;99.90;;;;;;5104951;27;20545;-83
2022/09/07 11:56:53;;;;;;;2.63;2.43;;;26.20;99.90;;;;;;5098405;28;20534;-81
2022/09/07 11:59:35;;;;;;;2.43;2.33;;;26.60;99.90;;;;;;5100429;27;20465;-83
2022/09/07 12:02:30;;;;;;;2.70;1.77;;;26.80;99.90;;;;;;5101757;27;20467;-83
2022/09/07 12:05:10;;;;;;;2.73;2.53;;;27.00;99.20;;;;;;5101857;27;20594;-81
2022/09/07 12:08:00;;;;;;;2.90;2.70;;;26.80;99.40;;;;;;5095622;27;20474;-82
2022/09/07 12:10:49;;;;;;;2.47;2.27;;;26.70;99.90;;;;;;5112728;27;20464;-85
2022/09/07 12:13:39;;;;;;;3.20;3.00;;;26.90;99.60;;;;;;5100066;27;20462;-81
2022/09/07 12:16:12;;;;;;;2.80;2.60;;;26.70;99.50;;;;;;5106301;28;20442;-85
2022/09/07 12:19:00;;;;;;;2.37;2.00;;;26.50;99.90;;;;;;5115572;27;20449;-81
2022/09/07 12:21:37;;;;;;;1.80;1.70;;;26.50;99.30;;;;;;5102892;27;20898;-84
2022/09/07 12:24:26;;;;;;;1.90;1.80;;;26.80;99.90;;;;;;5105095;28;20540;-83
2022/09/07 12:27:00;;;;;;;2.23;2.03;;;27.00;99.20;;;;;;5096736;27;21097;-84
2022/09/07 12:29:29;;;;;;;2.60;2.40;;;27.20;99.60;;;;;;5116137;27;21236;-86
2022/09/07 12:31:57;;;;;;;1.70;1.60;;;27.10;99.30;;;;;;5115264;27;20465;-84
2022/09/07 12:34:46;;;;;;;2.80;1.17;;;26.90;98.10;;;;;;5109103;27;20968;-82
2022/09/07 12:37:37;;;;;;;2.53;2.40;;;26.70;99.30;;;;;;5090609;27;20451;-81
2022/09/07 12:40:41;;;;;;;1.30;1.20;;;26.70;99.90;;;;;;5093222;28;20454;-82
2022/09/07 12:43:51;;;;;;;6.63;1.20;;;26.70;99.40;;;;;;5106211;27;20442;-80
2022/09/07 12:46:47;;;;;;;2.40;2.20;;;26.90;98.50;;;;;;5093972;27;20485;-90
2022/09/07 12:49:40;;;;;;;5.83;1.80;;;26.90;98.00;;;;;;5102510;28;20964;-83
2022/09/07 12:52:36;;;;;;;1.77;1.30;;;26.70;99.20;;;;;;5102839;27;20455;-81
2022/09/07 12:55:11;;;;;;;4.33;1.90;;;26.70;98.60;;;;;;5105653;27;20489;-82
2022/09/07 12:57:45;;;;;;;2.07;1.60;;;26.80;98.20;;;;;;5097184;27;20462;-82
2022/09/07 13:00:33;;;;;;;1.87;1.77;;;26.80;98.20;;;;;;5100685;27;20513;-82
2022/09/07 13:03:26;;;;;;;2.17;1.90;;;26.90;98.30;;;;;;5096621;27;20453;-81
2022/09/07 13:06:02;;;;;;;1.60;1.13;;;26.60;97.90;;;;;;5096454;27;20475;-82
2022/09/07 13:09:23;;;;;;;2.07;1.30;;;26.50;98.90;;;;;;5114553;27;20506;-82
2022/09/07 13:11:50;;;;;;;4.83;2.23;;;26.70;98.30;;;;;;5061413;28;20437;-82